Time,TemperatureF,DewpointF,PressureIn,WindDirection,WindDirectionDegrees,WindSpeedMPH,WindSpeedGustMPH,Humidity,HourlyPrecipIn,Conditions,Clouds,dailyrainin,SoftwareType,DateUTC
2013-11-28 00:08:00,9.7,9.3,29.94,NNW,337,0.0,-999.0,98,-99.99,,,0.00,Acu-Link.com,2013-11-28 07:08:00,
2013-11-28 00:23:00,8.4,7.7,29.94,East,90,0.0,-999.0,97,-99.99,,,0.00,Acu-Link.com,2013-11-28 07:23:00,
2013-11-28 00:38:00,8.6,8.2,29.93,WSW,247,0.0,-999.0,98,-99.99,,,0.00,Acu-Link.com,2013-11-28 07:38:00,
2013-11-28 00:53:00,8.8,8.4,29.94,NNE,22,0.0,-999.0,98,-99.99,,,0.00,Acu-Link.com,2013-11-28 07:53:00,
2013-11-28 01:09:00,9.5,9.1,29.94,ENE,67,0.0,-999.0,98,-99.99,,,0.00,Acu-Link.com,2013-11-28 08:09:00,
2013-11-28 01:24:00,9.3,8.9,29.94,NNE,22,0.0,-999.0,98,-99.99,,,0.00,Acu-Link.com,2013-11-28 08:24:00,
2013-11-28 01:39:00,8.4,8.0,29.94,NNE,22,0.0,-999.0,98,-99.99,,,0.00,Acu-Link.com,2013-11-28 08:39:00,
2013-11-28 01:54:00,8.8,8.4,29.94,North,0,0.0,-999.0,98,-99.99,,,0.00,Acu-Link.com,2013-11-28 08:54:00,
2013-11-28 02:09:00,8.4,8.0,29.95,NE,45,0.0,-999.0,98,-99.99,,,0.00,Acu-Link.com,2013-11-28 09:09:00,
2013-11-28 02:24:00,8.2,7.8,29.95,NNW,337,0.0,-999.0,98,-99.99,,,0.00,Acu-Link.com,2013-11-28 09:24:00,
2013-11-28 02:40:00,7.7,7.3,29.95,North,0,0.0,-999.0,98,-99.99,,,0.00,Acu-Link.com,2013-11-28 09:40:00,
2013-11-28 02:55:00,6.6,4.5,29.95,ESE,112,0.0,-999.0,91,-99.99,,,0.00,Acu-Link.com,2013-11-28 09:55:00,
2013-11-28 03:10:00,5.7,3.2,29.95,ESE,112,0.0,-999.0,89,-99.99,,,0.00,Acu-Link.com,2013-11-28 10:10:00,
2013-11-28 03:25:00,5.4,3.1,29.96,ENE,67,0.0,-999.0,90,-99.99,,,0.00,Acu-Link.com,2013-11-28 10:25:00,
2013-11-28 03:40:00,5.2,2.7,29.96,SW,225,0.0,-999.0,89,-99.99,,,0.00,Acu-Link.com,2013-11-28 10:40:00,
2013-11-28 03:55:00,4.6,3.0,29.96,NE,45,0.0,-999.0,93,-99.99,,,0.00,Acu-Link.com,2013-11-28 10:55:00,
2013-11-28 04:11:00,4.8,3.9,29.96,NE,45,0.0,-999.0,96,-99.99,,,0.00,Acu-Link.com,2013-11-28 11:11:00,
2013-11-28 04:26:00,5.5,5.1,29.95,NE,45,0.0,-999.0,98,-99.99,,,0.00,Acu-Link.com,2013-11-28 11:26:00,
2013-11-28 04:41:00,5.2,4.1,29.96,SE,135,0.0,-999.0,95,-99.99,,,0.00,Acu-Link.com,2013-11-28 11:41:00,
2013-11-28 04:56:00,4.3,2.3,29.96,SW,225,0.0,-999.0,91,-99.99,,,0.00,Acu-Link.com,2013-11-28 11:56:00,
2013-11-28 05:11:00,3.6,0.9,29.97,NE,45,0.0,-999.0,88,-99.99,,,0.00,Acu-Link.com,2013-11-28 12:11:00,
2013-11-28 05:27:00,3.9,1.4,29.97,East,90,0.0,-999.0,89,-99.99,,,0.00,Acu-Link.com,2013-11-28 12:27:00,
2013-11-28 05:42:00,3.9,1.2,29.98,ENE,67,0.0,-999.0,88,-99.99,,,0.00,Acu-Link.com,2013-11-28 12:42:00,
2013-11-28 05:57:00,4.3,3.0,29.98,East,90,0.0,-999.0,94,-99.99,,,0.00,Acu-Link.com,2013-11-28 12:57:00,
2013-11-28 06:12:00,4.5,3.4,29.98,NE,45,0.0,-999.0,95,-99.99,,,0.00,Acu-Link.com,2013-11-28 13:12:00,
2013-11-28 06:28:00,5.4,5.0,29.98,NNW,337,0.0,-999.0,98,-99.99,,,0.00,Acu-Link.com,2013-11-28 13:28:00,
2013-11-28 06:43:00,5.2,3.9,29.99,SSW,202,0.0,-999.0,94,-99.99,,,0.00,Acu-Link.com,2013-11-28 13:43:00,
2013-11-28 06:58:00,4.6,2.3,29.99,WNW,292,0.0,-999.0,90,-99.99,,,0.00,Acu-Link.com,2013-11-28 13:58:00,
2013-11-28 07:13:00,4.3,1.8,30.00,East,90,0.0,-999.0,89,-99.99,,,0.00,Acu-Link.com,2013-11-28 14:13:00,
2013-11-28 07:28:00,6.1,5.7,30.00,NE,45,0.0,-999.0,98,-99.99,,,0.00,Acu-Link.com,2013-11-28 14:28:00,
2013-11-28 07:44:00,7.2,6.5,30.00,NNW,337,0.0,-999.0,97,-99.99,,,0.00,Acu-Link.com,2013-11-28 14:44:00,
2013-11-28 07:59:00,8.8,8.1,30.01,SSE,157,0.0,-999.0,97,-99.99,,,0.00,Acu-Link.com,2013-11-28 14:59:00,
2013-11-28 08:14:00,10.2,9.7,30.01,ENE,67,0.0,-999.0,98,-99.99,,,0.00,Acu-Link.com,2013-11-28 15:14:00,
2013-11-28 08:29:00,10.9,10.0,30.02,East,90,0.0,-999.0,96,-99.99,,,0.00,Acu-Link.com,2013-11-28 15:29:00,
2013-11-28 08:44:00,12.6,11.7,30.02,East,90,2.7,-999.0,96,-99.99,,,0.00,Acu-Link.com,2013-11-28 15:44:00,
2013-11-28 08:59:00,12.4,11.2,30.01,ESE,112,1.7,-999.0,95,-99.99,,,0.00,Acu-Link.com,2013-11-28 15:59:00,
2013-11-28 09:14:00,14.0,12.6,30.01,ESE,112,0.0,-999.0,94,-99.99,,,0.00,Acu-Link.com,2013-11-28 16:14:00,
2013-11-28 09:30:00,15.1,13.4,30.01,East,90,2.2,-999.0,93,-99.99,,,0.00,Acu-Link.com,2013-11-28 16:30:00,
2013-11-28 09:45:00,17.2,14.8,30.01,NNE,22,0.0,-999.0,90,-99.99,,,0.00,Acu-Link.com,2013-11-28 16:45:00,
2013-11-28 10:01:00,20.3,16.3,30.00,ESE,112,2.2,-999.0,84,-99.99,,,0.00,Acu-Link.com,2013-11-28 17:01:00,
2013-11-28 10:16:00,21.7,16.8,30.00,South,180,1.1,-999.0,81,-99.99,,,0.00,Acu-Link.com,2013-11-28 17:16:00,
2013-11-28 10:31:00,23.7,17.9,29.99,East,90,2.7,-999.0,78,-99.99,,,0.00,Acu-Link.com,2013-11-28 17:31:00,
2013-11-28 10:46:00,25.5,19.6,29.98,SSE,157,3.2,-999.0,78,-99.99,,,0.00,Acu-Link.com,2013-11-28 17:46:00,
2013-11-28 11:02:00,26.8,20.3,29.96,South,180,2.2,-999.0,76,-99.99,,,0.00,Acu-Link.com,2013-11-28 18:02:00,
2013-11-28 11:17:00,27.3,20.1,29.96,ESE,112,3.2,-999.0,74,-99.99,,,0.00,Acu-Link.com,2013-11-28 18:17:00,
2013-11-28 11:32:00,30.6,22.0,29.95,South,180,3.7,-999.0,70,-99.99,,,0.00,Acu-Link.com,2013-11-28 18:32:00,
2013-11-28 11:47:00,30.0,21.4,29.93,WNW,292,1.7,-999.0,70,-99.99,,,0.00,Acu-Link.com,2013-11-28 18:47:00,
2013-11-28 12:02:00,30.9,21.9,29.92,West,270,0.0,-999.0,69,-99.99,,,0.00,Acu-Link.com,2013-11-28 19:02:00,
2013-11-28 12:18:00,32.9,22.8,29.91,NE,45,2.2,-999.0,66,-99.99,,,0.00,Acu-Link.com,2013-11-28 19:18:00,
2013-11-28 12:33:00,33.1,23.0,29.90,NE,45,2.2,-999.0,66,-99.99,,,0.00,Acu-Link.com,2013-11-28 19:33:00,
2013-11-28 12:48:00,34.5,24.7,29.89,West,270,1.7,-999.0,67,-99.99,,,0.00,Acu-Link.com,2013-11-28 19:48:00,
2013-11-28 13:03:00,35.8,24.1,29.88,NNE,22,1.7,-999.0,62,-99.99,,,0.00,Acu-Link.com,2013-11-28 20:03:00,
2013-11-28 13:19:00,36.0,24.3,29.87,NNE,22,1.7,-999.0,62,-99.99,,,0.00,Acu-Link.com,2013-11-28 20:19:00,
2013-11-28 13:34:00,36.1,24.7,29.87,NE,45,3.2,-999.0,63,-99.99,,,0.00,Acu-Link.com,2013-11-28 20:34:00,
2013-11-28 13:49:00,37.8,25.6,29.87,North,0,0.0,-999.0,61,-99.99,,,0.00,Acu-Link.com,2013-11-28 20:49:00,
2013-11-28 14:05:00,37.4,24.8,29.86,NNW,337,2.2,-999.0,60,-99.99,,,0.00,Acu-Link.com,2013-11-28 21:05:00,
2013-11-28 14:20:00,36.3,24.5,29.85,East,90,2.7,-999.0,62,-99.99,,,0.00,Acu-Link.com,2013-11-28 21:20:00,
2013-11-28 14:35:00,37.9,25.7,29.86,SSW,202,2.2,-999.0,61,-99.99,,,0.00,Acu-Link.com,2013-11-28 21:35:00,
2013-11-28 14:50:00,37.6,25.8,29.86,SSW,202,2.7,-999.0,62,-99.99,,,0.00,Acu-Link.com,2013-11-28 21:50:00,
2013-11-28 15:05:00,37.0,25.2,29.86,SSE,157,0.0,-999.0,62,-99.99,,,0.00,Acu-Link.com,2013-11-28 22:05:00,
2013-11-28 15:21:00,35.8,24.8,29.86,SSE,157,2.7,-999.0,64,-99.99,,,0.00,Acu-Link.com,2013-11-28 22:21:00,
2013-11-28 15:36:00,35.6,25.7,29.87,South,180,2.7,-999.0,67,-99.99,,,0.00,Acu-Link.com,2013-11-28 22:36:00,
2013-11-28 15:51:00,35.1,25.3,29.87,SSW,202,2.7,-999.0,67,-99.99,,,0.00,Acu-Link.com,2013-11-28 22:51:00,
2013-11-28 16:07:00,34.3,24.5,29.87,SSW,202,2.2,-999.0,67,-99.99,,,0.00,Acu-Link.com,2013-11-28 23:07:00,
2013-11-28 16:22:00,32.7,24.0,29.88,SSW,202,0.0,-999.0,70,-99.99,,,0.00,Acu-Link.com,2013-11-28 23:22:00,
2013-11-28 16:37:00,30.9,23.3,29.88,SW,225,0.0,-999.0,73,-99.99,,,0.00,Acu-Link.com,2013-11-28 23:37:00,
2013-11-28 16:53:00,28.8,21.9,29.88,NNW,337,0.0,-999.0,75,-99.99,,,0.00,Acu-Link.com,2013-11-28 23:53:00,
2013-11-28 17:08:00,26.6,21.9,29.88,NNW,337,0.0,-999.0,82,-99.99,,,0.00,Acu-Link.com,2013-11-29 00:08:00,
2013-11-28 17:23:00,24.8,21.5,29.89,East,90,0.0,-999.0,87,-99.99,,,0.00,Acu-Link.com,2013-11-29 00:23:00,
2013-11-28 17:38:00,22.8,20.1,29.89,NNE,22,0.0,-999.0,89,-99.99,,,0.00,Acu-Link.com,2013-11-29 00:38:00,
2013-11-28 17:53:00,22.3,19.8,29.90,ESE,112,0.0,-999.0,90,-99.99,,,0.00,Acu-Link.com,2013-11-29 00:53:00,
2013-11-28 18:08:00,21.0,19.0,29.91,North,0,0.0,-999.0,92,-99.99,,,0.00,Acu-Link.com,2013-11-29 01:08:00,
2013-11-28 18:23:00,19.9,18.7,29.91,ENE,67,0.0,-999.0,95,-99.99,,,0.00,Acu-Link.com,2013-11-29 01:23:00,
2013-11-28 18:39:00,19.2,18.7,29.91,NE,45,0.0,-999.0,98,-99.99,,,0.00,Acu-Link.com,2013-11-29 01:39:00,
2013-11-28 18:54:00,18.5,18.0,29.92,North,0,0.0,-999.0,98,-99.99,,,0.00,Acu-Link.com,2013-11-29 01:54:00,
2013-11-28 19:09:00,17.8,17.3,29.92,ESE,112,0.0,-999.0,98,-99.99,,,0.00,Acu-Link.com,2013-11-29 02:09:00,
2013-11-28 19:25:00,17.1,16.6,29.93,ESE,112,0.0,-999.0,98,-99.99,,,0.00,Acu-Link.com,2013-11-29 02:25:00,
2013-11-28 19:40:00,16.7,16.2,29.93,North,0,0.0,-999.0,98,-99.99,,,0.00,Acu-Link.com,2013-11-29 02:40:00,
2013-11-28 19:55:00,15.8,15.3,29.92,NNE,22,0.0,-999.0,98,-99.99,,,0.00,Acu-Link.com,2013-11-29 02:55:00,
2013-11-28 20:10:00,14.9,14.4,29.94,SSW,202,0.0,-999.0,98,-99.99,,,0.00,Acu-Link.com,2013-11-29 03:10:00,
2013-11-28 20:26:00,14.4,13.9,29.94,ESE,112,0.0,-999.0,98,-99.99,,,0.00,Acu-Link.com,2013-11-29 03:26:00,
2013-11-28 20:41:00,13.6,13.1,29.94,NNE,22,0.0,-999.0,98,-99.99,,,0.00,Acu-Link.com,2013-11-29 03:41:00,
2013-11-28 20:56:00,13.5,13.0,29.95,NNW,337,0.0,-999.0,98,-99.99,,,0.00,Acu-Link.com,2013-11-29 03:56:00,
2013-11-28 21:11:00,14.5,14.0,29.95,NNW,337,0.0,-999.0,98,-99.99,,,0.00,Acu-Link.com,2013-11-29 04:11:00,
2013-11-28 21:26:00,14.2,13.7,29.95,NE,45,1.7,-999.0,98,-99.99,,,0.00,Acu-Link.com,2013-11-29 04:26:00,
2013-11-28 21:41:00,13.8,13.3,29.95,ENE,67,1.7,-999.0,98,-99.99,,,0.00,Acu-Link.com,2013-11-29 04:41:00,
2013-11-28 21:57:00,13.5,13.0,29.95,NNE,22,2.2,-999.0,98,-99.99,,,0.00,Acu-Link.com,2013-11-29 04:57:00,
2013-11-28 22:12:00,14.9,14.4,29.96,WSW,247,0.0,-999.0,98,-99.99,,,0.00,Acu-Link.com,2013-11-29 05:12:00,
2013-11-28 22:27:00,13.6,13.1,29.96,NNE,22,0.0,-999.0,98,-99.99,,,0.00,Acu-Link.com,2013-11-29 05:27:00,
2013-11-28 22:42:00,13.3,12.8,29.96,NE,45,2.7,-999.0,98,-99.99,,,0.00,Acu-Link.com,2013-11-29 05:42:00,
2013-11-28 22:57:00,14.2,13.7,29.97,NW,315,1.1,-999.0,98,-99.99,,,0.00,Acu-Link.com,2013-11-29 05:57:00,
2013-11-28 23:13:00,14.2,13.7,29.98,WSW,247,1.1,-999.0,98,-99.99,,,0.00,Acu-Link.com,2013-11-29 06:13:00,
2013-11-28 23:28:00,13.8,13.3,29.98,ENE,67,0.0,-999.0,98,-99.99,,,0.00,Acu-Link.com,2013-11-29 06:28:00,
2013-11-28 23:43:00,12.7,12.2,29.98,NE,45,0.0,-999.0,98,-99.99,,,0.00,Acu-Link.com,2013-11-29 06:43:00,
2013-11-28 23:58:00,12.0,11.5,29.99,NW,315,0.0,-999.0,98,-99.99,,,0.00,Acu-Link.com,2013-11-29 06:58:00,